Time;durP1;ratioP1;P1;durP2;ratioP2;P2;SDS_P1;SDS_P2;PMS_P1;PMS_P2;Temp;Humidity;BMP_temperature;BMP_pressure;BME280_temperature;BME280_humidity;BME280_pressure;Samples;Min_cycle;Max_cycle;Signal;HPM_P1;HPM_P2
2023/08/21 00:00:13;;;;;;;4.30;1.20;;;;;;;23.36;46.54;100515.63;5022979;28;20053;-77
2023/08/21 00:02:39;;;;;;;4.88;1.05;;;;;;;23.31;46.33;100525.97;5014388;28;20046;-77
2023/08/21 00:05:07;;;;;;;4.65;1.35;;;;;;;23.25;46.98;100524.72;5012067;28;20056;-77
2023/08/21 00:07:33;;;;;;;4.43;1.10;;;;;;;23.21;46.66;100526.03;5010832;28;20057;-78
2023/08/21 00:10:00;;;;;;;4.38;1.10;;;;;;;23.16;47.18;100525.66;5010720;28;20058;-77
2023/08/21 00:12:26;;;;;;;3.53;1.02;;;;;;;23.09;47.22;100520.03;5011450;28;20503;-76
2023/08/21 00:14:53;;;;;;;3.05;0.90;;;;;;;23.01;47.46;100522.63;5018845;28;20081;-76
2023/08/21 00:17:19;;;;;;;2.85;0.93;;;;;;;22.98;47.54;100518.41;5031175;28;20057;-77
2023/08/21 00:19:46;;;;;;;3.63;1.25;;;;;;;22.96;47.33;100523.09;5030465;28;20137;-76
2023/08/21 00:22:12;;;;;;;4.63;1.10;;;;;;;22.95;47.50;100529.44;5030629;28;20115;-76
2023/08/21 00:24:39;;;;;;;4.38;1.10;;;;;;;22.97;47.48;100535.53;5022628;28;20867;-79
2023/08/21 00:27:05;;;;;;;3.33;1.20;;;;;;;22.93;47.36;100526.06;5013077;28;20108;-78
2023/08/21 00:29:32;;;;;;;6.07;1.38;;;;;;;22.89;47.58;100530.06;5014154;28;20054;-76
2023/08/21 00:31:59;;;;;;;2.70;1.00;;;;;;;22.83;47.43;100525.28;5014302;28;20046;-75
2023/08/21 00:34:25;;;;;;;1.85;1.00;;;;;;;22.73;48.02;100520.78;5016890;28;20100;-77
2023/08/21 00:36:52;;;;;;;4.20;0.88;;;;;;;22.67;48.39;100524.09;5034083;28;20128;-77
2023/08/21 00:39:18;;;;;;;4.35;1.17;;;;;;;22.64;49.22;100519.00;5033685;28;20045;-78
2023/08/21 00:41:45;;;;;;;4.70;1.27;;;;;;;22.62;48.86;100524.50;5034003;28;20109;-78
2023/08/21 00:44:11;;;;;;;5.68;1.52;;;;;;;22.63;49.31;100517.31;5033606;28;20088;-78
2023/08/21 00:46:38;;;;;;;5.65;1.20;;;;;;;22.62;48.91;100527.19;5015583;28;20108;-76
2023/08/21 00:49:04;;;;;;;3.17;0.95;;;;;;;22.61;48.46;100528.19;5013708;28;20561;-78
2023/08/21 00:51:32;;;;;;;5.22;1.08;;;;;;;22.57;48.99;100525.97;5013919;28;20058;-77
2023/08/21 00:53:58;;;;;;;5.40;1.00;;;;;;;22.52;49.36;100523.69;5014040;28;20054;-76
2023/08/21 00:56:25;;;;;;;2.97;1.00;;;;;;;22.49;49.33;100524.81;5026830;28;20092;-77
2023/08/21 00:58:51;;;;;;;4.25;1.20;;;;;;;22.50;49.46;100526.50;5029542;28;20050;-78
2023/08/21 01:01:25;;;;;;;2.17;0.80;;;;;;;22.50;50.27;100531.88;5013504;28;20077;-77
2023/08/21 01:03:52;;;;;;;2.25;0.90;;;;;;;22.54;49.39;100528.91;5013871;28;20054;-77
2023/08/21 01:06:19;;;;;;;3.58;1.00;;;;;;;22.55;49.48;100530.63;5013567;28;20058;-79
2023/08/21 01:09:07;;;;;;;3.83;0.98;;;;;;;22.48;50.04;100528.50;5013416;28;20654;-76
2023/08/21 01:11:44;;;;;;;3.28;1.10;;;;;;;22.47;50.23;100518.75;5018720;28;20505;-77
2023/08/21 01:14:23;;;;;;;4.53;1.17;;;;;;;22.49;50.19;100527.50;5022749;28;20045;-77
2023/08/21 01:16:55;;;;;;;3.53;0.88;;;;;;;22.52;49.48;100529.91;5013460;28;20053;-77
2023/08/21 01:19:32;;;;;;;2.92;0.98;;;;;;;22.51;49.66;100528.19;5014079;28;20446;-78
2023/08/21 01:22:00;;;;;;;4.72;1.10;;;;;;;22.54;49.68;100531.59;5033046;28;20460;-77
2023/08/21 01:24:27;;;;;;;2.40;0.77;;;;;;;22.54;49.54;100526.22;5031968;28;20111;-77
2023/08/21 01:26:53;;;;;;;2.03;0.82;;;;;;;22.53;49.72;100530.72;5032949;28;20465;-78
2023/08/21 01:29:20;;;;;;;3.55;0.95;;;;;;;22.52;49.52;100529.91;5032640;28;20108;-77
2023/08/21 01:31:55;;;;;;;4.20;1.13;;;;;;;22.48;49.63;100533.03;5014636;28;20093;-76
2023/08/21 01:34:22;;;;;;;4.22;1.02;;;;;;;22.46;49.93;100526.97;5013013;28;20073;-77
2023/08/21 01:36:49;;;;;;;2.50;0.85;;;;;;;22.43;50.28;100530.75;5012976;28;20089;-78
2023/08/21 01:39:16;;;;;;;4.38;0.85;;;;;;;22.40;50.53;100533.75;5012290;28;20049;-78
2023/08/21 01:41:43;;;;;;;5.32;1.17;;;;;;;22.35;50.29;100531.50;5027366;28;20403;-77
2023/08/21 01:44:09;;;;;;;5.35;1.20;;;;;;;22.30;50.53;100533.78;5031012;28;20084;-79
2023/08/21 01:46:38;;;;;;;4.00;1.08;;;;;;;22.26;50.86;100538.59;5032484;28;20053;-77
2023/08/21 01:49:05;;;;;;;3.40;1.15;;;;;;;22.23;50.96;100538.88;5032730;28;20049;-77
2023/08/21 01:51:31;;;;;;;3.05;1.08;;;;;;;22.23;50.91;100536.19;5021904;28;20111;-77
2023/08/21 01:53:58;;;;;;;5.07;1.25;;;;;;;22.24;50.99;100527.16;5012621;28;20498;-76
2023/08/21 01:56:24;;;;;;;4.00;1.30;;;;;;;22.24;51.22;100532.53;5012559;28;20045;-77
2023/08/21 01:58:51;;;;;;;4.03;1.10;;;;;;;22.23;51.14;100522.78;5012233;28;20502;-78
2023/08/21 02:01:18;;;;;;;3.55;1.10;;;;;;;22.23;51.27;100524.63;5017716;28;20080;-78
2023/08/21 02:03:46;;;;;;;4.45;1.25;;;;;;;22.22;51.35;100529.16;5032262;28;20789;-79
2023/08/21 02:06:13;;;;;;;4.07;1.13;;;;;;;22.19;51.01;100526.75;5032468;28;20045;-76
2023/08/21 02:08:39;;;;;;;8.45;1.42;;;;;;;22.16;51.25;100521.66;5030760;28;20049;-77
2023/08/21 02:11:06;;;;;;;2.20;1.08;;;;;;;22.13;51.50;100521.97;5030960;28;20469;-76
2023/08/21 02:13:33;;;;;;;4.10;1.27;;;;;;;22.09;51.70;100513.34;5012304;28;20050;-76
2023/08/21 02:16:02;;;;;;;7.25;1.83;;;;;;;22.12;51.52;100509.53;5016535;28;20042;-77
2023/08/21 02:18:29;;;;;;;3.88;1.20;;;;;;;22.17;51.54;100519.84;5011877;28;20050;-76
2023/08/21 02:20:55;;;;;;;5.95;0.95;;;;;;;22.20;51.82;100514.19;5012352;28;20458;-78
2023/08/21 02:23:24;;;;;;;2.53;0.93;;;;;;;22.23;50.91;100514.75;5012112;28;20085;-76
2023/08/21 02:25:51;;;;;;;4.90;1.35;;;;;;;22.22;50.23;100522.94;5012056;28;20103;-78
2023/08/21 02:28:17;;;;;;;4.47;1.33;;;;;;;22.13;50.36;100525.50;5031399;28;20084;-77
2023/08/21 02:30:45;;;;;;;2.55;1.02;;;;;;;22.03;50.31;100519.31;5031841;28;20085;-76
2023/08/21 02:33:12;;;;;;;4.30;1.45;;;;;;;21.94;50.51;100515.66;5031948;28;20568;-79
2023/08/21 02:35:39;;;;;;;3.75;1.40;;;;;;;21.85;50.92;100521.88;5031749;28;20054;-76
2023/08/21 02:38:06;;;;;;;5.43;1.60;;;;;;;21.80;51.23;100524.13;5016268;28;20123;-77
2023/08/21 02:40:32;;;;;;;2.63;1.08;;;;;;;21.77;51.18;100524.41;5028278;28;20045;-78
2023/08/21 02:42:59;;;;;;;2.58;1.13;;;;;;;21.74;51.86;100528.22;5011790;28;20054;-77
2023/08/21 02:45:25;;;;;;;3.40;1.08;;;;;;;21.73;52.55;100524.72;5012001;28;20129;-78
2023/08/21 02:47:52;;;;;;;3.22;1.13;;;;;;;21.73;52.48;100526.53;5022161;28;20083;-79
2023/08/21 02:50:19;;;;;;;4.88;1.30;;;;;;;21.74;52.75;100528.22;5030631;28;20049;-77
2023/08/21 02:52:46;;;;;;;3.90;0.80;;;;;;;21.74;53.15;100525.53;5031512;28;20137;-76
2023/08/21 02:55:13;;;;;;;3.25;1.00;;;;;;;21.78;53.19;100523.41;5031350;28;20602;-80
2023/08/21 02:57:40;;;;;;;3.83;0.98;;;;;;;21.81;53.96;100532.03;5024842;28;20046;-76
2023/08/21 03:00:11;;;;;;;7.20;1.10;;;;;;;21.85;53.69;100527.22;5024955;28;20124;-78
2023/08/21 03:02:42;;;;;;;3.88;1.27;;;;;;;21.85;53.74;100525.41;5031585;28;20140;-77
2023/08/21 03:05:11;;;;;;;3.47;0.82;;;;;;;21.86;53.40;100524.41;5031213;28;20049;-77
2023/08/21 03:07:37;;;;;;;4.68;1.40;;;;;;;21.87;53.19;100517.22;5028927;28;20099;-77
2023/08/21 03:10:05;;;;;;;5.55;1.13;;;;;;;21.89;53.34;100517.06;5018264;28;20469;-77
2023/08/21 03:12:32;;;;;;;3.88;1.25;;;;;;;21.88;52.78;100516.22;5026998;28;20136;-77
2023/08/21 03:14:58;;;;;;;2.97;0.90;;;;;;;21.87;52.93;100520.72;5013421;28;20054;-77
2023/08/21 03:17:25;;;;;;;4.38;1.23;;;;;;;21.86;53.07;100518.19;5031276;28;20072;-77
2023/08/21 03:19:52;;;;;;;2.33;0.95;;;;;;;21.85;52.57;100525.41;5030967;28;20411;-76
2023/08/21 03:22:18;;;;;;;4.63;1.10;;;;;;;21.84;52.54;100528.22;5031142;28;20045;-77
2023/08/21 03:24:45;;;;;;;4.20;1.40;;;;;;;21.82;52.74;100523.00;5030831;28;20053;-78
2023/08/21 03:27:11;;;;;;;3.83;1.30;;;;;;;21.80;52.54;100525.00;5014162;28;20046;-77
2023/08/21 03:29:38;;;;;;;3.80;1.30;;;;;;;21.78;52.89;100526.09;5010918;28;20104;-77
2023/08/21 03:32:04;;;;;;;4.53;1.38;;;;;;;21.77;53.01;100530.63;5011414;28;20811;-77
2023/08/21 03:34:31;;;;;;;3.78;1.10;;;;;;;21.77;53.36;100530.63;5011171;28;20116;-77
2023/08/21 03:36:58;;;;;;;5.95;1.25;;;;;;;21.78;53.26;100526.09;5022646;28;20053;-77
2023/08/21 03:39:24;;;;;;;3.25;1.20;;;;;;;21.79;53.27;100522.44;5030579;28;20157;-77
2023/08/21 03:41:51;;;;;;;5.68;1.48;;;;;;;21.81;53.44;100526.69;5030995;28;20068;-78
2023/08/21 03:44:17;;;;;;;3.60;1.23;;;;;;;21.85;53.91;100528.09;5030693;28;20050;-78
2023/08/21 03:46:44;;;;;;;2.78;1.13;;;;;;;21.89;54.13;100525.97;5023363;28;20042;-77
2023/08/21 03:49:10;;;;;;;3.65;1.15;;;;;;;21.93;54.14;100529.19;5010879;28;20594;-78
2023/08/21 03:51:37;;;;;;;2.60;0.88;;;;;;;21.96;54.09;100526.22;5010987;28;20054;-76
2023/08/21 03:54:05;;;;;;;5.13;1.00;;;;;;;21.98;54.17;100521.59;5011091;28;20062;-77
2023/08/21 03:56:31;;;;;;;4.65;1.15;;;;;;;21.99;53.68;100524.09;5011073;28;20406;-79
2023/08/21 03:58:58;;;;;;;5.15;1.13;;;;;;;22.01;53.14;100518.59;5011030;28;20465;-77
2023/08/21 04:01:25;;;;;;;2.47;0.98;;;;;;;22.02;53.36;100523.00;5012443;28;20475;-78
2023/08/21 04:03:51;;;;;;;4.47;1.52;;;;;;;22.03;53.30;100516.63;5015196;28;20413;-78
2023/08/21 04:06:18;;;;;;;4.15;1.48;;;;;;;22.04;53.48;100514.78;5014677;28;20056;-76
2023/08/21 04:08:44;;;;;;;5.18;1.25;;;;;;;22.05;53.21;100516.50;5030128;28;20556;-77
2023/08/21 04:11:11;;;;;;;5.95;1.27;;;;;;;22.05;52.93;100517.31;5019104;28;20134;-77
2023/08/21 04:13:37;;;;;;;4.53;1.13;;;;;;;22.05;53.04;100511.97;5034514;28;20057;-79
2023/08/21 04:16:04;;;;;;;5.85;1.63;;;;;;;22.08;52.81;100510.81;5034339;28;20487;-77
2023/08/21 04:18:31;;;;;;;5.80;1.70;;;;;;;22.10;53.34;100517.72;5020614;28;20503;-77
2023/08/21 04:21:07;;;;;;;2.75;1.20;;;;;;;22.15;52.72;100530.72;5014843;28;20089;-76
2023/08/21 04:23:34;;;;;;;6.47;1.25;;;;;;;22.17;52.63;100526.06;5014558;28;20054;-77
2023/08/21 04:26:02;;;;;;;3.88;1.20;;;;;;;22.19;53.15;100534.78;5014590;28;20046;-77
2023/08/21 04:28:32;;;;;;;5.57;1.50;;;;;;;22.16;53.06;100535.06;5023934;28;20057;-79
2023/08/21 04:30:59;;;;;;;7.50;1.48;;;;;;;22.18;52.82;100540.31;5034046;28;20064;-78
2023/08/21 04:33:28;;;;;;;4.78;1.45;;;;;;;22.15;53.15;100536.06;5021790;28;20069;-76
2023/08/21 04:35:55;;;;;;;2.78;1.08;;;;;;;22.15;53.24;100533.41;5014323;28;20058;-78
2023/08/21 04:38:21;;;;;;;3.55;1.20;;;;;;;22.16;53.12;100535.06;5026990;28;20186;-79
2023/08/21 04:40:48;;;;;;;3.28;1.35;;;;;;;22.14;53.49;100534.38;5033954;28;20627;-77
2023/08/21 04:43:15;;;;;;;2.45;0.82;;;;;;;22.13;53.33;100536.22;5034014;28;20084;-78
2023/08/21 04:45:54;;;;;;;3.53;1.30;;;;;;;22.06;53.95;100534.25;5033800;28;20091;-77
2023/08/21 04:48:21;;;;;;;3.88;1.15;;;;;;;22.08;53.75;100529.59;5023513;28;20054;-77
2023/08/21 04:50:48;;;;;;;4.15;1.38;;;;;;;22.07;54.29;100528.75;5014131;28;20050;-80
2023/08/21 04:53:14;;;;;;;4.78;1.15;;;;;;;22.11;54.30;100529.31;5014123;28;20060;-79
2023/08/21 04:55:41;;;;;;;4.15;1.15;;;;;;;22.14;53.99;100523.66;5014003;28;20054;-77
2023/08/21 04:58:09;;;;;;;3.45;1.00;;;;;;;22.20;53.86;100530.28;5019961;28;20053;-77
2023/08/21 05:00:35;;;;;;;3.75;1.02;;;;;;;22.26;53.84;100530.56;5018614;28;20106;-76
2023/08/21 05:03:02;;;;;;;2.95;1.15;;;;;;;22.32;53.69;100537.16;5014142;28;20061;-76
2023/08/21 05:05:29;;;;;;;3.35;1.25;;;;;;;22.35;53.90;100528.81;5013995;28;20100;-77
2023/08/21 05:07:55;;;;;;;3.33;1.30;;;;;;;22.39;53.98;100526.72;5013643;28;20092;-76
2023/08/21 05:10:22;;;;;;;4.90;1.63;;;;;;;22.43;53.75;100533.44;5023734;28;20069;-76
2023/08/21 05:12:49;;;;;;;3.53;0.98;;;;;;;22.46;53.78;100535.84;5031228;28;20081;-76
2023/08/21 05:15:16;;;;;;;5.00;1.30;;;;;;;22.50;53.42;100541.78;5032381;28;20119;-77
2023/08/21 05:17:43;;;;;;;3.13;1.40;;;;;;;22.54;53.27;100547.69;5032245;28;20049;-76
2023/08/21 05:20:13;;;;;;;6.65;1.80;;;;;;;22.55;53.26;100550.25;5025392;28;20081;-77
2023/08/21 05:22:40;;;;;;;3.15;1.67;;;;;;;22.58;53.08;100541.06;5012478;28;20057;-77
2023/08/21 05:25:07;;;;;;;5.70;1.75;;;;;;;22.58;52.80;100547.25;5011547;28;20057;-76
2023/08/21 05:27:34;;;;;;;4.78;1.98;;;;;;;22.59;53.14;100551.66;5013076;28;20050;-78
2023/08/21 05:30:00;;;;;;;5.78;2.00;;;;;;;22.59;53.05;100551.66;5015437;28;20061;-76
2023/08/21 05:32:27;;;;;;;3.95;1.63;;;;;;;22.60;52.93;100558.72;5026595;28;20049;-76
2023/08/21 05:34:54;;;;;;;4.38;1.88;;;;;;;22.61;52.76;100555.03;5022766;28;20053;-75
2023/08/21 05:37:20;;;;;;;4.78;1.95;;;;;;;22.61;52.88;100560.41;5031599;28;20050;-77
2023/08/21 05:39:48;;;;;;;4.13;2.28;;;;;;;22.61;53.01;100559.56;5032565;28;20093;-79
2023/08/21 05:42:15;;;;;;;9.45;2.50;;;;;;;22.60;52.71;100563.22;5014618;28;20050;-77
2023/08/21 05:44:41;;;;;;;6.32;2.40;;;;;;;22.60;52.87;100568.59;5012976;28;20557;-77
2023/08/21 05:47:08;;;;;;;5.88;2.10;;;;;;;22.58;52.58;100565.22;5013058;28;20057;-76
2023/08/21 05:49:35;;;;;;;5.93;2.22;;;;;;;22.56;52.53;100565.38;5012809;28;20050;-76
2023/08/21 05:52:02;;;;;;;6.15;2.15;;;;;;;22.55;52.79;100568.19;5025422;28;20060;-77
2023/08/21 05:54:30;;;;;;;4.97;2.00;;;;;;;22.55;53.15;100569.03;5032614;28;20057;-77
2023/08/21 05:56:57;;;;;;;5.10;2.10;;;;;;;22.54;53.04;100569.97;5032353;28;20049;-77
2023/08/21 05:59:29;;;;;;;4.88;1.85;;;;;;;22.52;52.93;100572.84;5031096;28;20150;-76
2023/08/21 06:01:56;;;;;;;5.43;2.17;;;;;;;22.55;53.01;100570.88;5023024;28;20054;-76
2023/08/21 06:04:22;;;;;;;4.95;2.40;;;;;;;22.58;53.35;100573.28;5012510;28;20347;-77
2023/08/21 06:06:49;;;;;;;5.35;1.90;;;;;;;22.60;53.53;100579.31;5012377;28;20501;-76
2023/08/21 06:09:17;;;;;;;3.55;1.92;;;;;;;22.62;53.27;100580.84;5012107;28;20046;-76
2023/08/21 06:11:44;;;;;;;9.63;2.30;;;;;;;22.65;52.76;100579.72;5017170;28;20049;-77
2023/08/21 06:14:10;;;;;;;5.72;2.20;;;;;;;22.68;52.83;100574.06;5032403;28;20136;-76
2023/08/21 06:16:37;;;;;;;8.65;2.08;;;;;;;22.71;53.50;100581.84;5032152;28;20049;-76
2023/08/21 06:19:03;;;;;;;5.60;2.00;;;;;;;22.75;53.73;100577.88;5031946;28;20059;-77
2023/08/21 06:21:30;;;;;;;7.15;1.80;;;;;;;22.81;53.69;100580.94;5031568;28;20143;-76
2023/08/21 06:23:56;;;;;;;4.53;1.42;;;;;;;22.86;53.80;100587.56;5012051;28;20502;-76
2023/08/21 06:26:23;;;;;;;5.60;1.70;;;;;;;22.92;53.80;100588.81;5012283;28;20046;-76
2023/08/21 06:28:51;;;;;;;5.88;2.10;;;;;;;22.95;53.34;100582.31;5011969;28;20772;-78
2023/08/21 06:31:20;;;;;;;3.70;1.52;;;;;;;22.99;54.01;100584.53;5012214;28;20068;-78
2023/08/21 06:33:47;;;;;;;3.70;1.38;;;;;;;23.02;53.83;100578.88;5027865;28;20049;-77
2023/08/21 06:36:13;;;;;;;7.15;1.55;;;;;;;23.09;54.06;100587.16;5031592;28;20046;-76
2023/08/21 06:38:40;;;;;;;5.32;1.75;;;;;;;23.14;53.94;100592.09;5031274;28;20407;-76
2023/08/21 06:41:06;;;;;;;4.80;1.60;;;;;;;23.17;53.67;100583.72;5031464;28;20053;-77
2023/08/21 06:43:38;;;;;;;5.95;1.67;;;;;;;23.21;53.88;100589.66;5019444;28;20143;-76
2023/08/21 06:46:08;;;;;;;4.22;1.52;;;;;;;23.24;53.44;100587.50;5011964;28;20053;-77
2023/08/21 06:48:38;;;;;;;7.28;1.73;;;;;;;23.27;53.91;100584.53;5011522;28;20454;-76
2023/08/21 06:51:05;;;;;;;4.60;1.48;;;;;;;23.33;53.63;100587.59;5012246;28;20081;-77
2023/08/21 06:53:32;;;;;;;7.57;1.65;;;;;;;23.36;53.40;100590.84;5019934;28;20053;-76
2023/08/21 06:55:58;;;;;;;8.48;1.85;;;;;;;23.41;53.54;100590.41;5019176;28;20117;-77
2023/08/21 06:58:25;;;;;;;5.95;1.65;;;;;;;23.46;53.64;100593.50;5026127;28;20481;-76
2023/08/21 07:00:53;;;;;;;4.88;1.75;;;;;;;23.51;53.28;100601.94;5031520;28;20099;-78
2023/08/21 07:03:20;;;;;;;6.45;1.70;;;;;;;23.57;53.10;100592.41;5027228;28;20041;-77
2023/08/21 07:05:54;;;;;;;5.47;1.80;;;;;;;23.61;53.40;100595.63;5028906;28;20154;-78
2023/08/21 07:08:20;;;;;;;6.07;1.65;;;;;;;23.69;53.38;100601.09;5031101;28;20409;-77
2023/08/21 07:10:47;;;;;;;5.80;1.70;;;;;;;23.74;53.17;100598.78;5030907;28;20049;-79
2023/08/21 07:13:13;;;;;;;9.18;1.48;;;;;;;23.79;53.57;100593.81;5031204;28;20041;-77
2023/08/21 07:15:40;;;;;;;8.32;2.05;;;;;;;23.86;53.94;100596.75;5017782;28;20108;-76
2023/08/21 07:18:07;;;;;;;5.70;1.55;;;;;;;23.91;52.80;100598.94;5011145;28;20085;-76
2023/08/21 07:20:34;;;;;;;4.55;1.38;;;;;;;23.98;53.20;100591.97;5011046;28;20054;-76
2023/08/21 07:23:01;;;;;;;5.35;2.03;;;;;;;24.03;53.52;100597.72;5010248;28;20050;-76
2023/08/21 07:25:28;;;;;;;8.02;2.08;;;;;;;24.10;53.21;100602.47;5019426;28;20053;-78
2023/08/21 07:27:55;;;;;;;10.70;2.55;;;;;;;24.16;53.08;100607.25;5029380;28;20050;-76
2023/08/21 07:30:22;;;;;;;5.75;2.10;;;;;;;24.20;52.91;100608.63;5030598;28;20045;-78
2023/08/21 07:32:49;;;;;;;6.28;1.67;;;;;;;24.23;52.95;100602.94;5031165;28;20123;-77
2023/08/21 07:35:15;;;;;;;7.78;2.45;;;;;;;24.26;53.13;100605.31;5030436;28;20057;-76
2023/08/21 07:37:45;;;;;;;5.68;2.30;;;;;;;24.30;52.84;100608.53;5024186;28;20041;-78
2023/08/21 07:40:12;;;;;;;9.10;2.65;;;;;;;24.36;52.66;100607.06;5010834;28;20086;-76
2023/08/21 07:42:38;;;;;;;7.95;2.83;;;;;;;24.42;53.10;100615.38;5011021;28;20058;-78
2023/08/21 07:45:06;;;;;;;4.88;1.98;;;;;;;24.48;52.46;100607.66;5011007;28;20116;-76
2023/08/21 07:47:32;;;;;;;6.25;2.17;;;;;;;24.53;52.80;100606.19;5011170;28;20050;-76
2023/08/21 07:50:02;;;;;;;8.13;2.40;;;;;;;24.59;52.96;100608.22;5030424;28;20084;-77
2023/08/21 07:52:29;;;;;;;5.00;1.60;;;;;;;24.66;52.39;100612.97;5030889;28;20055;-76
2023/08/21 07:54:55;;;;;;;4.18;1.63;;;;;;;24.71;52.09;100614.16;5030605;28;20053;-78
2023/08/21 07:57:22;;;;;;;4.65;1.40;;;;;;;24.77;51.36;100614.53;5030489;28;20049;-76
2023/08/21 07:59:48;;;;;;;6.47;1.55;;;;;;;24.79;51.61;100605.31;5012688;28;20085;-77
2023/08/21 08:02:15;;;;;;;9.30;1.92;;;;;;;24.81;51.80;100597.91;5011107;28;20061;-78
2023/08/21 08:04:43;;;;;;;4.70;1.33;;;;;;;24.84;51.64;100597.63;5009722;28;20417;-80
2023/08/21 08:07:09;;;;;;;7.53;1.40;;;;;;;24.87;51.34;100601.00;5011114;28;20068;-76
2023/08/21 08:09:36;;;;;;;5.15;1.45;;;;;;;24.89;51.40;100593.63;5023275;28;20073;-78
2023/08/21 08:12:03;;;;;;;4.85;1.30;;;;;;;24.91;51.49;100599.66;5030402;28;20436;-77
2023/08/21 08:14:33;;;;;;;5.25;1.58;;;;;;;24.94;52.04;100604.72;5030897;28;20387;-76
2023/08/21 08:16:59;;;;;;;9.38;2.10;;;;;;;24.99;52.33;100599.69;5030302;28;20474;-76
2023/08/21 08:19:26;;;;;;;5.00;1.50;;;;;;;25.03;52.21;100598.38;5021411;28;20060;-78
2023/08/21 08:21:52;;;;;;;6.38;1.80;;;;;;;25.07;51.38;100602.44;5022715;28;20081;-77
2023/08/21 08:24:19;;;;;;;7.03;1.60;;;;;;;25.09;51.31;100600.41;5015308;28;20046;-78
2023/08/21 08:26:46;;;;;;;6.35;1.45;;;;;;;25.10;50.75;100604.81;5010728;28;20077;-78
2023/08/21 08:29:12;;;;;;;4.50;1.30;;;;;;;25.09;51.17;100607.66;5014246;28;20049;-77
2023/08/21 08:31:39;;;;;;;6.85;1.65;;;;;;;25.09;50.61;100608.47;5030443;28;20053;-76
2023/08/21 08:34:05;;;;;;;6.43;1.63;;;;;;;25.07;50.63;100607.81;5030478;28;20049;-76
2023/08/21 08:36:32;;;;;;;4.63;1.40;;;;;;;25.08;51.24;100603.28;5030399;28;20057;-78
2023/08/21 08:38:59;;;;;;;4.80;1.30;;;;;;;25.11;51.80;100601.09;5029932;28;20415;-76
2023/08/21 08:41:38;;;;;;;2.75;1.15;;;;;;;25.18;51.61;100603.13;5010744;28;20060;-76
2023/08/21 08:44:04;;;;;;;4.35;1.30;;;;;;;25.28;51.25;100597.63;5010536;28;20537;-76
2023/08/21 08:46:31;;;;;;;4.03;1.30;;;;;;;25.34;50.96;100595.09;5010554;28;20053;-76
2023/08/21 08:49:00;;;;;;;4.25;1.23;;;;;;;25.40;50.71;100598.16;5012600;28;20092;-79
2023/08/21 08:51:30;;;;;;;2.80;0.93;;;;;;;25.47;49.94;100601.88;5030491;28;20618;-76
2023/08/21 08:53:58;;;;;;;3.83;1.73;;;;;;;25.53;50.17;100603.91;5033705;28;20061;-76
2023/08/21 08:56:25;;;;;;;7.38;1.30;;;;;;;25.59;50.57;100597.91;5033810;28;20194;-79
2023/08/21 08:58:52;;;;;;;3.63;1.35;;;;;;;25.67;50.47;100604.31;5033395;28;20100;-77
2023/08/21 09:01:19;;;;;;;4.57;1.20;;;;;;;25.73;49.83;100595.53;5020690;28;20426;-78
2023/08/21 09:03:45;;;;;;;3.17;1.17;;;;;;;25.79;49.91;100597.56;5013692;28;20137;-77
2023/08/21 09:06:12;;;;;;;6.88;1.33;;;;;;;25.84;49.52;100597.94;5021326;28;20108;-77
2023/08/21 09:08:53;;;;;;;4.55;1.33;;;;;;;25.87;49.36;100602.97;5013746;28;20172;-77
2023/08/21 09:11:20;;;;;;;3.22;1.15;;;;;;;25.94;49.15;100592.34;5013993;28;20454;-77
2023/08/21 09:13:49;;;;;;;4.53;1.33;;;;;;;25.98;49.30;100595.56;5012310;28;20499;-78
2023/08/21 09:16:18;;;;;;;4.82;1.40;;;;;;;26.03;48.85;100587.81;5013442;28;20085;-76
2023/08/21 09:18:51;;;;;;;2.58;0.73;;;;;;;26.08;47.78;100593.53;5029771;28;20081;-79
2023/08/21 09:21:19;;;;;;;3.28;1.00;;;;;;;26.12;47.70;100602.97;5032326;28;20053;-76
2023/08/21 09:23:46;;;;;;;4.50;1.50;;;;;;;26.15;47.79;100602.66;5033217;28;20081;-76
2023/08/21 09:26:20;;;;;;;3.95;1.35;;;;;;;26.12;47.31;100602.97;5031899;28;20095;-77
2023/08/21 09:28:51;;;;;;;2.47;1.10;;;;;;;26.13;47.23;100607.34;5017833;28;20061;-78
2023/08/21 09:31:30;;;;;;;5.03;1.10;;;;;;;26.08;47.43;100612.41;5013006;28;20505;-77
2023/08/21 09:33:58;;;;;;;6.43;1.30;;;;;;;26.11;46.89;100616.63;5013283;28;20061;-75
2023/08/21 09:36:24;;;;;;;4.45;1.15;;;;;;;26.07;47.34;100620.66;5012977;28;20482;-75
2023/08/21 09:38:52;;;;;;;3.28;1.30;;;;;;;26.03;47.20;100606.69;5024749;28;20085;-77
2023/08/21 09:41:20;;;;;;;3.90;1.27;;;;;;;26.01;47.30;100612.25;5032843;28;20056;-75
2023/08/21 09:43:46;;;;;;;4.72;1.10;;;;;;;26.00;47.71;100599.78;5032816;28;20049;-78
2023/08/21 09:46:23;;;;;;;4.22;1.20;;;;;;;25.98;46.78;100600.97;5032806;28;20049;-77
2023/08/21 09:48:52;;;;;;;3.35;1.30;;;;;;;26.00;47.25;100601.63;5022991;28;20506;-76
2023/08/21 09:51:19;;;;;;;3.80;1.20;;;;;;;26.04;47.43;100608.38;5016384;28;20054;-79
2023/08/21 09:53:47;;;;;;;2.92;1.00;;;;;;;26.09;47.23;100602.47;5030245;28;20445;-76
2023/08/21 09:56:14;;;;;;;5.07;1.25;;;;;;;26.17;48.33;100610.56;5032364;28;20099;-77
2023/08/21 09:58:41;;;;;;;4.72;1.27;;;;;;;26.26;48.08;100614.13;5031951;28;20049;-77
2023/08/21 10:01:14;;;;;;;5.88;1.25;;;;;;;26.36;48.12;100604.00;5032572;28;20111;-76
2023/08/21 10:03:42;;;;;;;2.97;1.20;;;;;;;26.48;48.29;100606.31;5030727;28;20147;-76
2023/08/21 10:06:10;;;;;;;3.60;1.30;;;;;;;26.59;48.20;100597.88;5032247;28;20049;-76
2023/08/21 10:08:42;;;;;;;3.65;1.38;;;;;;;26.69;48.18;100596.84;5028088;28;20088;-77
2023/08/21 10:11:09;;;;;;;2.90;1.42;;;;;;;26.79;46.87;100592.91;5016924;28;20049;-77
2023/08/21 10:13:38;;;;;;;3.13;1.08;;;;;;;26.89;47.65;100592.72;5012576;28;20117;-76
2023/08/21 10:16:05;;;;;;;4.28;1.20;;;;;;;27.03;47.87;100593.84;5012496;28;20249;-76
2023/08/21 10:18:36;;;;;;;4.35;1.10;;;;;;;27.15;47.09;100586.22;5013032;28;20054;-78
2023/08/21 10:21:25;;;;;;;3.63;1.23;;;;;;;27.24;47.93;100586.19;5013286;28;20049;-78
2023/08/21 10:23:54;;;;;;;4.15;1.27;;;;;;;27.39;47.76;100583.56;5024878;28;20064;-77
2023/08/21 10:26:25;;;;;;;3.33;1.10;;;;;;;27.52;47.30;100585.66;5032036;28;20053;-77
2023/08/21 10:28:52;;;;;;;2.15;1.02;;;;;;;27.64;47.21;100589.66;5031701;28;20464;-76
2023/08/21 10:31:42;;;;;;;2.67;1.23;;;;;;;27.74;47.38;100589.44;5031908;28;20049;-78
2023/08/21 10:34:13;;;;;;;3.97;1.00;;;;;;;27.94;47.71;100594.31;5031814;28;20072;-77
2023/08/21 10:36:43;;;;;;;3.38;0.90;;;;;;;28.06;47.91;100584.75;5012113;28;20080;-77
2023/08/21 10:39:22;;;;;;;5.88;1.48;;;;;;;28.17;46.14;100583.47;5027422;28;20042;-77
2023/08/21 10:42:09;;;;;;;2.67;1.17;;;;;;;28.31;44.54;100589.13;5030172;28;20494;-80
2023/08/21 10:44:42;;;;;;;2.65;1.02;;;;;;;28.43;44.12;100587.63;5030661;28;20477;-77
2023/08/21 10:47:16;;;;;;;;;;;;;;;28.52;45.83;100584.84;5012374;28;20042;-76
2023/08/21 10:49:45;;;;;;;2.13;0.98;;;;;;;28.69;44.83;100586.34;5011399;28;19921;-77
2023/08/21 10:52:12;;;;;;;3.67;1.00;;;;;;;28.79;45.11;100583.34;5011788;28;20116;-76
2023/08/21 10:54:47;;;;;;;2.65;1.23;;;;;;;28.91;44.51;100585.59;5011627;28;20107;-77
2023/08/21 10:57:14;;;;;;;1.58;0.90;;;;;;;29.07;43.65;100584.53;5030474;28;20049;-76
2023/08/21 11:00:16;;;;;;;2.28;1.00;;;;;;;29.15;44.58;100583.59;5020857;28;20057;-77
2023/08/21 11:02:45;;;;;;;2.55;0.90;;;;;;;29.31;43.21;100585.25;5003794;28;20490;-77
2023/08/21 11:05:13;;;;;;;2.95;0.90;;;;;;;29.37;42.32;100581.75;5011475;28;20145;-77
2023/08/21 11:07:45;;;;;;;1.58;1.00;;;;;;;29.39;42.26;100583.25;5010358;28;20057;-76
2023/08/21 11:10:14;;;;;;;3.05;1.00;;;;;;;29.42;42.28;100583.91;5020135;28;20057;-79
2023/08/21 11:12:51;;;;;;;4.85;1.25;;;;;;;29.36;42.42;100574.66;5015906;28;20510;-78
2023/08/21 11:15:18;;;;;;;3.95;1.30;;;;;;;29.37;41.32;100569.03;5029882;28;20058;-77
2023/08/21 11:18:00;;;;;;;1.88;0.85;;;;;;;29.31;42.59;100563.56;5030867;28;20478;-76
2023/08/21 11:20:34;;;;;;;3.00;1.05;;;;;;;29.40;42.92;100565.09;5019643;28;20495;-78
2023/08/21 11:23:05;;;;;;;3.00;1.17;;;;;;;29.63;44.13;100566.81;5011445;28;20100;-77
2023/08/21 11:25:31;;;;;;;1.92;0.77;;;;;;;30.02;44.99;100565.47;5010099;28;20053;-77
2023/08/21 11:27:59;;;;;;;2.83;1.02;;;;;;;30.54;44.30;100572.53;5011170;28;20050;-78